Time;durP1;ratioP1;P1;durP2;ratioP2;P2;SDS_P1;SDS_P2;PMS_P1;PMS_P2;Temp;Humidity;BMP_temperature;BMP_pressure;BME280_temperature;BME280_humidity;BME280_pressure;Samples;Min_cycle;Max_cycle;Signal;HPM_P1;HPM_P2
2022/06/03 00:01:30;;;;;;;15.17;6.63;;;;;;;16.98;87.60;99821.05;1698785;83;21127;-70
2022/06/03 00:04:25;;;;;;;12.13;6.03;;;;;;;16.98;87.84;99818.84;1664247;83;21059;-72
2022/06/03 00:07:15;;;;;;;10.85;6.45;;;;;;;16.96;87.95;99828.95;1702217;83;21054;-72
2022/06/03 00:09:59;;;;;;;8.33;6.00;;;;;;;16.89;87.88;99839.88;1700684;83;21043;-73
2022/06/03 00:12:46;;;;;;;;;;;;;;;16.82;88.35;99839.70;1700671;83;21067;-69
2022/06/03 00:15:38;;;;;;;10.25;6.45;;;;;;;16.79;88.26;99836.45;1698288;83;21910;-65
2022/06/03 00:18:20;;;;;;;8.45;6.78;;;;;;;16.78;88.57;99843.20;1698405;83;21519;-73
2022/06/03 00:21:09;;;;;;;11.40;6.37;;;;;;;16.76;88.43;99841.34;1680780;83;20996;-71
2022/06/03 00:24:17;;;;;;;6.47;5.70;;;;;;;16.69;88.37;99848.09;1698889;83;21063;-68
2022/06/03 00:26:53;;;;;;;9.18;6.95;;;;;;;16.62;88.57;99846.48;1698998;83;21114;-73
2022/06/03 00:29:56;;;;;;;11.03;6.42;;;;;;;16.55;88.74;99845.12;1695815;83;21815;-68
2022/06/03 00:32:52;;;;;;;8.65;6.47;;;;;;;16.52;89.22;99851.97;1682854;84;21516;-69
2022/06/03 00:35:45;;;;;;;14.80;6.87;;;;;;;16.49;89.21;99863.81;1696818;83;21030;-68
2022/06/03 00:38:45;;;;;;;11.22;6.45;;;;;;;16.42;89.38;99855.49;1666263;84;21051;-71
2022/06/03 00:41:57;;;;;;;8.78;6.78;;;;;;;16.40;89.54;99852.82;1669193;85;21581;-70
2022/06/03 00:45:06;;;;;;;13.40;6.77;;;;;;;16.33;89.56;99863.72;1687655;84;21819;-72
2022/06/03 00:48:12;;;;;;;11.05;6.55;;;;;;;16.33;89.92;99873.45;1669085;85;21346;-68
2022/06/03 00:51:06;;;;;;;12.90;7.35;;;;;;;16.32;90.09;99873.23;1690614;84;21535;-69
2022/06/03 00:53:55;;;;;;;9.63;6.33;;;;;;;16.31;89.91;99879.36;1673173;85;21054;-70
2022/06/03 00:56:39;;;;;;;9.08;6.65;;;;;;;16.32;90.10;99881.57;1687464;84;21819;-69
2022/06/03 00:59:46;;;;;;;;;;;;;;;16.30;89.98;99879.97;1673440;85;21172;-67
2022/06/03 01:02:34;;;;;;;9.48;6.75;;;;;;;16.29;90.23;99882.50;1698042;83;20143;-68
2022/06/03 01:05:54;;;;;;;11.80;6.50;;;;;;;16.29;90.11;99890.84;1698304;83;21019;-69
2022/06/03 01:09:00;;;;;;;8.58;6.30;;;;;;;16.34;90.34;99900.11;1698653;83;21090;-70
2022/06/03 01:12:07;;;;;;;6.92;6.08;;;;;;;16.34;89.97;99908.45;1698939;83;21110;-67
2022/06/03 01:14:53;;;;;;;8.68;5.92;;;;;;;16.32;89.88;99907.98;1667980;85;21160;-72
2022/06/03 01:18:02;;;;;;;13.60;6.97;;;;;;;16.28;89.94;99910.08;1687405;84;21098;-69
2022/06/03 01:20:42;;;;;;;11.12;6.75;;;;;;;16.25;89.72;99908.00;1670967;85;21070;-67
2022/06/03 01:23:43;;;;;;;14.70;7.58;;;;;;;16.24;90.10;99903.59;1696028;83;21087;-69
2022/06/03 01:26:55;;;;;;;9.20;6.90;;;;;;;16.20;89.72;99914.37;1669739;85;21518;-67
2022/06/03 01:30:10;;;;;;;12.53;7.83;;;;;;;16.14;90.12;99904.88;1610628;85;21554;-72
2022/06/03 01:33:09;;;;;;;10.95;6.83;;;;;;;16.16;89.89;99904.52;1697464;83;21075;-71
2022/06/03 01:36:11;;;;;;;8.98;6.97;;;;;;;16.09;89.78;99915.44;1676500;85;21588;-70
2022/06/03 01:38:50;;;;;;;10.55;6.95;;;;;;;16.02;89.66;99907.08;1691317;83;21051;-70
2022/06/03 01:41:50;;;;;;;8.30;6.22;;;;;;;16.00;90.13;99923.28;1708900;83;21051;-69
2022/06/03 01:44:37;;;;;;;7.75;6.33;;;;;;;15.96;89.76;99922.91;1702278;83;21651;-71
2022/06/03 01:47:35;;;;;;;8.68;7.03;;;;;;;15.92;89.86;99932.52;1696977;83;21030;-68
2022/06/03 01:50:35;;;;;;;8.15;6.00;;;;;;;15.91;89.73;99932.30;1697384;83;21093;-68
2022/06/03 01:53:37;;;;;;;7.40;6.20;;;;;;;15.87;89.86;99943.86;1694102;83;21567;-72
2022/06/03 01:56:33;;;;;;;12.15;6.35;;;;;;;15.82;89.98;99948.50;1696493;83;21094;-66
2022/06/03 01:59:47;;;;;;;9.68;6.83;;;;;;;15.81;90.14;99951.03;1705728;83;20995;-69
2022/06/03 02:02:47;;;;;;;12.28;7.50;;;;;;;15.82;89.90;99952.67;1700797;83;20995;-69
2022/06/03 02:05:40;;;;;;;11.90;6.22;;;;;;;15.83;89.79;99953.48;1677138;83;21051;-70
2022/06/03 02:08:13;;;;;;;9.90;6.47;;;;;;;15.84;89.69;99959.84;1671196;85;21630;-67
2022/06/03 02:11:08;;;;;;;9.10;6.42;;;;;;;15.84;89.27;99954.28;1697645;83;21036;-68
2022/06/03 02:14:09;;;;;;;8.43;6.08;;;;;;;15.82;89.02;99958.80;1680221;85;21677;-67
2022/06/03 02:17:05;;;;;;;9.00;6.67;;;;;;;15.73;88.34;99950.55;1697121;84;20995;-71
2022/06/03 02:20:20;;;;;;;7.58;5.95;;;;;;;15.69;88.84;99948.25;1732710;81;21046;-68
2022/06/03 02:23:10;;;;;;;10.18;5.87;;;;;;;15.69;88.85;99944.88;1732717;81;21438;-70
2022/06/03 02:25:51;;;;;;;10.20;5.40;;;;;;;15.62;88.68;99939.67;1732487;81;20992;-70
2022/06/03 02:28:28;;;;;;;7.65;6.00;;;;;;;15.53;88.91;99955.03;1732823;81;21117;-71
2022/06/03 02:31:24;;;;;;;13.90;5.15;;;;;;;15.49;89.05;99952.12;1706454;83;21035;-68
2022/06/03 02:34:17;;;;;;;11.75;4.87;;;;;;;15.53;88.94;99957.24;1699626;83;21619;-70
2022/06/03 02:37:04;;;;;;;7.62;4.90;;;;;;;15.57;88.72;99955.98;1687061;83;21471;-70
2022/06/03 02:40:02;;;;;;;7.87;5.00;;;;;;;15.54;88.22;99958.85;1699700;83;21106;-70
2022/06/03 02:42:37;;;;;;;7.60;5.58;;;;;;;15.49;87.69;99968.78;1647295;83;21538;-70
2022/06/03 02:45:40;;;;;;;7.20;5.25;;;;;;;15.39;87.86;99963.09;1696403;83;21059;-69
2022/06/03 02:48:29;;;;;;;7.22;5.33;;;;;;;15.40;87.87;99963.92;1698940;83;21106;-71
2022/06/03 02:51:16;;;;;;;6.10;4.85;;;;;;;15.43;88.05;99972.38;1693478;83;21114;-68
2022/06/03 02:54:18;;;;;;;5.92;4.92;;;;;;;15.48;88.08;99982.45;1692723;83;21066;-72
2022/06/03 02:57:16;;;;;;;7.92;4.90;;;;;;;15.54;88.53;99982.45;1683146;85;21843;-69
2022/06/03 03:00:26;;;;;;;6.28;5.45;;;;;;;15.67;88.09;100004.16;1659947;85;21027;-72
2022/06/03 03:03:17;;;;;;;7.90;5.55;;;;;;;15.63;86.89;99998.22;1699021;83;21075;-69
2022/06/03 03:06:20;;;;;;;6.92;5.50;;;;;;;15.46;87.19;100004.19;1668428;85;21519;-70
2022/06/03 03:09:32;;;;;;;10.90;5.17;;;;;;;15.40;87.39;100009.16;1683322;85;21095;-69
2022/06/03 03:12:25;;;;;;;12.68;5.53;;;;;;;15.39;87.49;100017.80;1666990;85;21129;-69
2022/06/03 03:15:26;;;;;;;6.00;4.92;;;;;;;15.35;87.75;100018.27;1668434;84;21067;-67
2022/06/03 03:18:40;;;;;;;6.87;5.25;;;;;;;15.39;88.05;100024.74;1668672;85;21045;-67
2022/06/03 03:21:35;;;;;;;8.03;5.95;;;;;;;15.42;88.18;100031.81;1646362;84;21005;-66
2022/06/03 03:24:37;;;;;;;6.75;5.53;;;;;;;15.45;87.75;100025.61;1668011;85;21534;-70
2022/06/03 03:27:35;;;;;;;9.30;4.90;;;;;;;15.45;87.62;100031.16;1679986;85;21602;-68
2022/06/03 03:30:46;;;;;;;9.38;5.12;;;;;;;15.46;87.24;100033.34;1702133;83;21558;-69
2022/06/03 03:34:01;;;;;;;7.85;4.78;;;;;;;15.43;85.99;100036.80;1705395;83;21528;-66
2022/06/03 03:37:10;;;;;;;6.62;5.03;;;;;;;15.30;86.40;100042.29;1704894;83;21018;-69
2022/06/03 03:40:22;;;;;;;6.80;4.33;;;;;;;15.39;87.01;100046.39;1696635;83;21668;-68
2022/06/03 03:43:37;;;;;;;16.97;4.72;;;;;;;15.55;86.79;100059.08;1706755;82;21128;-67
2022/06/03 03:46:50;;;;;;;6.92;4.62;;;;;;;15.55;85.79;100060.47;1668733;85;21035;-67
2022/06/03 03:49:48;;;;;;;4.25;3.45;;;;;;;15.60;84.89;100069.16;1685328;84;21596;-68
2022/06/03 03:52:56;;;;;;;5.80;3.40;;;;;;;15.51;84.38;100076.17;1669147;85;21011;-66
2022/06/03 03:56:04;;;;;;;5.28;3.60;;;;;;;15.44;84.43;100082.84;1697630;83;21184;-67
2022/06/03 03:59:18;;;;;;;5.65;3.40;;;;;;;15.43;83.51;100086.78;1663438;85;21535;-67
2022/06/03 04:01:57;;;;;;;5.62;3.60;;;;;;;15.41;84.01;100090.47;1695762;83;21010;-66
2022/06/03 04:05:17;;;;;;;5.28;3.70;;;;;;;15.42;83.50;100100.44;1641571;84;21082;-69
2022/06/03 04:07:56;;;;;;;6.85;3.90;;;;;;;15.44;83.99;100105.88;1666522;85;21011;-72
2022/06/03 04:10:58;;;;;;;5.05;3.20;;;;;;;15.51;83.27;100105.33;1687140;84;21314;-67
2022/06/03 04:13:58;;;;;;;4.65;3.58;;;;;;;15.50;82.40;100100.94;1670885;85;21970;-71
2022/06/03 04:16:51;;;;;;;4.25;3.85;;;;;;;15.40;81.65;100106.89;1686732;84;21560;-68
2022/06/03 04:19:26;;;;;;;3.30;3.02;;;;;;;15.33;81.86;100106.05;1666676;85;21093;-70
2022/06/03 04:22:41;;;;;;;6.50;3.22;;;;;;;15.38;82.28;100111.97;1693569;83;21044;-70
2022/06/03 04:25:16;;;;;;;4.60;3.22;;;;;;;15.41;81.28;100105.73;1695103;83;21054;-69
2022/06/03 04:28:02;;;;;;;8.43;3.20;;;;;;;15.42;81.34;100099.84;1697470;83;21136;-67
2022/06/03 04:31:10;;;;;;;3.95;3.12;;;;;;;15.39;81.14;100105.25;1695805;83;21512;-71
2022/06/03 04:33:54;;;;;;;6.67;3.22;;;;;;;15.33;81.03;100108.27;1697059;84;21015;-70
2022/06/03 04:36:58;;;;;;;3.87;3.50;;;;;;;15.29;81.02;100116.19;1635073;85;21086;-70
2022/06/03 04:39:57;;;;;;;4.85;3.77;;;;;;;15.27;81.12;100123.47;1695952;84;21038;-67
2022/06/03 04:42:49;;;;;;;4.35;3.65;;;;;;;15.30;81.00;100126.95;1670917;83;21330;-67
2022/06/03 04:45:44;;;;;;;3.98;3.10;;;;;;;15.36;81.23;100130.92;1706091;82;21065;-68
2022/06/03 04:48:40;;;;;;;6.40;3.12;;;;;;;15.45;81.07;100133.89;1710528;83;21062;-70
2022/06/03 04:51:59;;;;;;;7.47;3.42;;;;;;;15.56;80.17;100136.23;1709444;83;21089;-70
2022/06/03 04:55:03;;;;;;;3.37;2.90;;;;;;;15.52;79.32;100138.08;1695536;83;21097;-69
2022/06/03 04:57:52;;;;;;;6.62;3.12;;;;;;;15.40;79.81;100138.83;1698282;84;21670;-70
2022/06/03 05:00:42;;;;;;;4.33;3.10;;;;;;;15.33;80.09;100142.96;1675254;85;21086;-66
2022/06/03 05:03:43;;;;;;;3.98;2.90;;;;;;;15.35;80.38;100144.02;1695703;84;21046;-69
2022/06/03 05:06:48;;;;;;;2.65;2.45;;;;;;;15.33;79.39;100144.92;1696756;83;21016;-67
2022/06/03 05:09:49;;;;;;;7.67;2.60;;;;;;;15.33;79.43;100145.73;1700544;83;21548;-68
2022/06/03 05:13:07;;;;;;;5.45;3.52;;;;;;;15.38;79.10;100153.61;1696652;83;21676;-67
2022/06/03 05:16:08;;;;;;;3.42;2.37;;;;;;;15.39;78.32;100152.45;1699203;83;21042;-66
2022/06/03 05:18:56;;;;;;;5.55;2.15;;;;;;;15.40;78.21;100152.70;1695226;84;21060;-66
2022/06/03 05:21:59;;;;;;;2.83;2.30;;;;;;;15.51;78.57;100162.82;1636765;85;21042;-71
2022/06/03 05:25:04;;;;;;;2.58;1.95;;;;;;;15.63;78.20;100166.24;1686809;84;21547;-66
2022/06/03 05:28:00;;;;;;;6.08;2.27;;;;;;;15.75;78.03;100171.05;1707716;84;21871;-69
2022/06/03 05:30:55;;;;;;;4.42;2.10;;;;;;;15.86;77.36;100175.63;1707049;84;21523;-69
2022/06/03 05:33:50;;;;;;;6.22;1.95;;;;;;;15.93;75.19;100175.90;1706452;84;21059;-68
2022/06/03 05:36:28;;;;;;;2.42;2.22;;;;;;;15.89;75.20;100180.50;1709131;84;21160;-71
2022/06/03 05:39:26;;;;;;;2.80;2.45;;;;;;;15.91;74.39;100185.15;1694160;83;21083;-66
2022/06/03 05:42:32;;;;;;;3.95;2.62;;;;;;;15.87;74.08;100185.58;1700316;83;22306;-71
2022/06/03 05:45:32;;;;;;;4.47;2.77;;;;;;;15.89;74.36;100190.22;1699825;84;21063;-70
2022/06/03 05:48:33;;;;;;;5.40;2.62;;;;;;;15.91;74.27;100191.53;1703146;84;21062;-70
2022/06/03 05:51:16;;;;;;;4.80;2.40;;;;;;;15.98;74.76;100190.16;1700051;84;21289;-69
2022/06/03 05:54:04;;;;;;;4.62;2.50;;;;;;;16.08;74.98;100198.11;1698079;83;21503;-70
2022/06/03 05:56:50;;;;;;;4.40;2.47;;;;;;;16.21;74.60;100200.91;1696194;83;21115;-69
2022/06/03 05:59:49;;;;;;;3.50;2.47;;;;;;;16.32;74.53;100197.14;1698943;83;21067;-70
2022/06/03 06:02:45;;;;;;;3.27;2.45;;;;;;;16.43;75.23;100198.32;1665292;85;21094;-67
2022/06/03 06:05:41;;;;;;;3.50;2.60;;;;;;;16.58;74.46;100205.19;1655514;83;21039;-72
2022/06/03 06:08:20;;;;;;;5.78;2.45;;;;;;;16.63;73.36;100200.00;1646995;86;21033;-69
2022/06/03 06:11:03;;;;;;;3.77;2.80;;;;;;;16.71;73.59;100198.27;1650657;86;21702;-70
2022/06/03 06:14:01;;;;;;;4.50;2.72;;;;;;;16.85;73.72;100196.55;1676187;84;21055;-70
2022/06/03 06:16:40;;;;;;;1.92;1.70;;;;;;;16.95;73.21;100200.27;1675590;85;21094;-70
2022/06/03 06:19:38;;;;;;;3.02;1.72;;;;;;;16.98;69.43;100205.70;1647991;85;21535;-70
2022/06/03 06:22:30;;;;;;;2.87;1.67;;;;;;;17.00;68.04;100202.00;1670973;85;21087;-67
2022/06/03 06:25:16;;;;;;;3.90;1.82;;;;;;;17.00;67.87;100200.03;1667080;85;21223;-68
2022/06/03 06:28:01;;;;;;;3.22;1.87;;;;;;;17.00;67.15;100197.83;1678288;85;21016;-69
2022/06/03 06:30:44;;;;;;;6.17;2.05;;;;;;;17.09;68.67;100196.33;1675483;84;21100;-66
2022/06/03 06:33:25;;;;;;;5.12;2.22;;;;;;;17.20;67.71;100188.33;1698153;84;21030;-69
2022/06/03 06:36:12;;;;;;;3.60;1.67;;;;;;;17.32;66.27;100197.25;1694118;84;20912;-68
2022/06/03 06:39:11;;;;;;;4.40;2.02;;;;;;;17.37;64.82;100194.23;1694407;84;21634;-67
2022/06/03 06:42:18;;;;;;;8.23;1.87;;;;;;;17.40;65.23;100192.13;1694208;84;22195;-69
2022/06/03 06:45:27;;;;;;;3.60;1.62;;;;;;;17.52;65.60;100192.12;1691938;84;21122;-68
2022/06/03 06:48:23;;;;;;;5.28;1.70;;;;;;;17.64;64.99;100194.64;1692382;84;21023;-71
2022/06/03 06:51:33;;;;;;;2.77;1.67;;;;;;;17.72;63.81;100200.68;1691968;84;21090;-70
2022/06/03 06:54:23;;;;;;;5.37;1.60;;;;;;;17.70;63.29;100203.00;1693081;84;21870;-70
2022/06/03 06:56:56;;;;;;;5.87;1.67;;;;;;;17.74;64.50;100204.50;1666566;84;20964;-67
2022/06/03 06:59:39;;;;;;;5.37;1.80;;;;;;;17.85;64.59;100205.63;1692121;84;20876;-68
2022/06/03 07:02:22;;;;;;;2.47;1.70;;;;;;;17.92;62.72;100200.84;1692279;84;20927;-69
2022/06/03 07:05:01;;;;;;;5.20;1.87;;;;;;;17.92;62.67;100202.80;1691912;84;21098;-65
2022/06/03 07:07:48;;;;;;;2.37;1.40;;;;;;;17.97;62.31;100194.19;1692344;84;21493;-67
2022/06/03 07:10:49;;;;;;;4.45;1.65;;;;;;;18.04;62.33;100208.34;1644284;86;21035;-67
2022/06/03 07:13:36;;;;;;;3.10;1.50;;;;;;;18.05;60.98;100209.95;1696634;84;21042;-69
2022/06/03 07:19:48;;;;;;;1.60;1.45;;;;;;;18.12;61.60;100214.92;1652245;85;21098;-68
2022/06/03 07:22:28;;;;;;;1.40;1.20;;;;;;;18.29;62.81;100214.44;1666613;85;21503;-64
2022/06/03 07:25:19;;;;;;;3.95;1.82;;;;;;;18.44;60.39;100210.84;1706333;83;21015;-70
2022/06/03 07:28:27;;;;;;;5.35;1.62;;;;;;;18.47;60.02;100209.33;1696419;83;21094;-67
2022/06/03 07:31:19;;;;;;;2.15;1.35;;;;;;;18.49;61.37;100208.40;1696192;83;21086;-70
2022/06/03 07:33:57;;;;;;;3.33;1.20;;;;;;;18.58;60.49;100217.97;1761515;80;21027;-67
2022/06/03 07:37:03;;;;;;;2.45;1.40;;;;;;;18.65;59.09;100213.16;1746301;81;21733;-69
2022/06/03 07:39:56;;;;;;;2.58;1.40;;;;;;;18.71;57.35;100220.91;1763666;80;21007;-68
2022/06/03 07:42:54;;;;;;;1.67;1.10;;;;;;;18.72;58.35;100216.15;1765747;80;21070;-67
2022/06/03 07:45:41;;;;;;;1.70;1.42;;;;;;;18.84;59.21;100211.89;1770541;80;21047;-66
2022/06/03 07:48:14;;;;;;;5.60;1.82;;;;;;;19.01;59.14;100213.27;1760899;80;21009;-67
2022/06/03 07:50:59;;;;;;;;;;;;;;;19.06;58.87;100205.43;1769415;79;21061;-66
2022/06/03 07:53:46;;;;;;;1.95;1.35;;;;;;;19.14;58.23;100207.83;1764329;80;20407;-68
2022/06/03 07:56:24;;;;;;;4.72;1.60;;;;;;;19.15;57.17;100203.06;1727011;81;21028;-69
2022/06/03 07:58:56;;;;;;;2.95;1.40;;;;;;;19.09;57.46;100205.28;1737921;81;21073;-68
2022/06/03 08:01:29;;;;;;;3.45;1.55;;;;;;;19.07;57.21;100207.64;1706404;82;21082;-70
2022/06/03 08:03:56;;;;;;;2.75;1.07;;;;;;;19.13;59.14;100208.19;1739088;81;39063;-67
2022/06/03 08:10:56;;;;;;;4.25;1.22;;;;;;;19.31;57.78;100214.22;1723807;82;21051;-71
2022/06/03 08:11:44;;;;;;;1.42;1.12;;;;;;;19.39;54.69;100218.80;1739448;81;21025;-67
2022/06/03 08:14:11;;;;;;;5.67;1.45;;;;;;;19.42;57.48;100217.25;1711462;81;21071;-67
2022/06/03 08:16:41;;;;;;;2.87;1.30;;;;;;;19.58;57.59;100215.82;1699453;82;21267;-71
2022/06/03 08:19:14;;;;;;;3.25;1.55;;;;;;;19.67;57.18;100210.03;1746265;81;21012;-67
2022/06/03 08:21:52;;;;;;;2.22;1.30;;;;;;;19.80;56.81;100214.31;1746903;81;21094;-70
2022/06/03 08:24:25;;;;;;;1.92;1.10;;;;;;;19.92;56.97;100216.16;1720888;81;21086;-67
2022/06/03 08:27:11;;;;;;;5.10;1.05;;;;;;;20.03;54.84;100214.14;1743224;81;21043;-67
2022/06/03 08:29:50;;;;;;;3.37;0.95;;;;;;;20.08;55.01;100216.67;1746036;81;21910;-68
2022/06/03 08:32:21;;;;;;;2.77;1.62;;;;;;;20.17;54.38;100220.65;1754076;81;21055;-67
2022/06/03 08:34:52;;;;;;;2.87;1.10;;;;;;;20.21;56.01;100211.75;1749273;81;21078;-67
2022/06/03 08:37:27;;;;;;;5.47;1.17;;;;;;;20.33;55.89;100220.58;1736780;81;21116;-65
2022/06/03 08:39:58;;;;;;;3.50;1.00;;;;;;;20.39;52.93;100223.28;1734181;81;21058;-69
2022/06/03 08:42:40;;;;;;;3.67;1.02;;;;;;;20.38;50.81;100230.06;1714103;82;21148;-65
2022/06/03 08:45:50;;;;;;;6.47;1.30;;;;;;;20.29;52.26;100227.49;1742782;81;20992;-67
2022/06/03 08:48:18;;;;;;;1.32;1.00;;;;;;;20.27;52.17;100234.05;1722958;82;21041;-70
2022/06/03 08:50:59;;;;;;;1.37;1.15;;;;;;;20.35;52.51;100239.78;1743236;81;21023;-71
2022/06/03 08:53:41;;;;;;;4.58;1.40;;;;;;;20.43;51.96;100235.36;1739649;80;21205;-67
2022/06/03 08:56:15;;;;;;;1.92;1.10;;;;;;;20.57;52.20;100236.81;1736060;81;21589;-67
2022/06/03 08:58:58;;;;;;;4.62;1.20;;;;;;;20.69;50.65;100242.82;1753883;80;21082;-70
2022/06/03 09:01:40;;;;;;;2.47;1.22;;;;;;;20.66;50.54;100244.36;1749561;81;21459;-70
2022/06/03 09:04:24;;;;;;;1.80;1.00;;;;;;;20.64;50.69;100248.11;1746185;80;21464;-71
2022/06/03 09:07:00;;;;;;;5.60;1.32;;;;;;;20.65;51.77;100244.73;1736179;81;21575;-69
2022/06/03 09:09:56;;;;;;;0.93;0.93;;;;;;;20.74;50.95;100252.31;1733309;81;20971;-70
2022/06/03 09:12:51;;;;;;;5.75;1.10;;;;;;;20.77;51.12;100245.14;1708764;84;21073;-69
2022/06/03 09:15:25;;;;;;;1.27;1.10;;;;;;;20.91;50.37;100238.99;1710095;83;21074;-72
2022/06/03 09:18:10;;;;;;;2.15;1.30;;;;;;;21.00;49.06;100251.38;1709589;84;21047;-70
2022/06/03 09:20:58;;;;;;;2.27;1.20;;;;;;;21.02;49.40;100253.19;1709450;84;20995;-70
2022/06/03 09:23:25;;;;;;;5.22;1.27;;;;;;;21.10;50.24;100256.33;1669574;84;21158;-67
2022/06/03 09:25:56;;;;;;;3.52;1.35;;;;;;;21.20;48.46;100255.49;1709891;83;21509;-67
2022/06/03 09:28:27;;;;;;;2.92;1.52;;;;;;;21.17;48.69;100250.06;1741366;81;21079;-67
2022/06/03 09:30:54;;;;;;;3.47;1.47;;;;;;;21.20;48.77;100254.09;1738189;81;20996;-67
2022/06/03 09:33:21;;;;;;;1.00;0.90;;;;;;;21.22;48.27;100254.53;1743859;81;21074;-69
2022/06/03 09:35:51;;;;;;;2.55;0.90;;;;;;;21.22;48.12;100253.13;1719377;82;21525;-70
2022/06/03 09:38:21;;;;;;;6.05;1.15;;;;;;;21.28;49.48;100260.02;1725941;82;21000;-69
2022/06/03 09:40:48;;;;;;;1.12;1.00;;;;;;;21.40;48.45;100254.80;1721050;82;20999;-71
2022/06/03 09:43:23;;;;;;;3.05;0.90;;;;;;;21.59;49.36;100261.48;1726893;82;21471;-69
2022/06/03 09:45:52;;;;;;;4.72;1.20;;;;;;;21.65;47.13;100257.97;1721479;82;21527;-67
2022/06/03 09:48:21;;;;;;;1.92;0.90;;;;;;;21.72;47.87;100255.05;1723940;82;22137;-69
2022/06/03 09:50:50;;;;;;;1.27;1.07;;;;;;;21.81;47.35;100254.21;1690963;83;21645;-67
2022/06/03 09:53:20;;;;;;;4.22;0.93;;;;;;;21.84;46.01;100249.24;1728351;82;21047;-66
2022/06/03 09:56:00;;;;;;;4.30;1.00;;;;;;;21.90;47.51;100252.53;1718069;82;21089;-67
2022/06/03 09:58:31;;;;;;;1.57;0.98;;;;;;;21.90;45.42;100255.34;1688283;83;21076;-66
2022/06/03 10:00:58;;;;;;;1.90;1.00;;;;;;;21.95;49.23;100255.01;1745627;81;21105;-68
2022/06/03 10:03:25;;;;;;;3.02;0.98;;;;;;;21.98;45.18;100257.63;1748064;81;21051;-69
2022/06/03 10:05:56;;;;;;;1.80;0.95;;;;;;;21.96;46.03;100259.41;1749241;81;21008;-69
2022/06/03 10:08:28;;;;;;;2.45;0.98;;;;;;;22.03;48.08;100265.71;1753966;81;21110;-70
2022/06/03 10:13:43;;;;;;;1.90;1.05;;;;;;;22.28;48.66;100246.17;1721123;81;21799;-71
2022/06/03 10:16:10;;;;;;;1.17;1.02;;;;;;;22.41;46.12;100257.94;1708507;82;21011;-68
2022/06/03 10:18:49;;;;;;;1.35;1.07;;;;;;;22.47;46.47;100263.41;1691589;83;21094;-67
2022/06/03 10:21:21;;;;;;;1.10;1.00;;;;;;;22.46;45.83;100261.80;1736870;81;21039;-67
2022/06/03 10:23:55;;;;;;;3.37;1.00;;;;;;;22.34;45.25;100257.26;1739397;81;21037;-66
2022/06/03 10:26:41;;;;;;;1.90;0.90;;;;;;;22.26;45.54;100254.98;1736736;81;21829;-70
2022/06/03 10:29:13;;;;;;;1.47;1.05;;;;;;;22.33;45.80;100253.64;1740061;81;21493;-67
2022/06/03 10:31:39;;;;;;;3.15;1.20;;;;;;;22.54;47.51;100250.04;1739383;81;21018;-70
2022/06/03 10:34:11;;;;;;;2.42;0.95;;;;;;;22.77;47.51;100243.48;1728056;81;21583;-67
2022/06/03 10:36:41;;;;;;;4.10;1.50;;;;;;;22.94;47.48;100244.84;1704289;83;21024;-70
2022/06/03 10:39:11;;;;;;;4.65;1.02;;;;;;;23.00;46.38;100244.69;1722104;82;21004;-69
2022/06/03 10:41:46;;;;;;;2.17;1.10;;;;;;;23.12;46.98;100256.81;1704004;83;21039;-66
2022/06/03 10:44:23;;;;;;;1.60;1.10;;;;;;;23.29;47.28;100251.13;1712624;83;21044;-69
2022/06/03 10:47:06;;;;;;;3.80;1.52;;;;;;;23.46;46.17;100248.27;1689327;84;21491;-72
2022/06/03 10:49:40;;;;;;;2.02;1.30;;;;;;;23.53;44.37;100246.09;1722758;83;20989;-68
2022/06/03 11:03:27;;;;;;;1.15;1.07;;;;;;;23.63;44.05;100234.73;1746958;81;21252;-69
2022/06/03 11:05:53;;;;;;;1.30;1.02;;;;;;;23.65;45.27;100240.74;1718616;83;21233;-71
2022/06/03 11:08:21;;;;;;;1.47;1.00;;;;;;;23.77;44.62;100239.01;1722793;83;21071;-70
2022/06/03 11:10:53;;;;;;;5.92;1.62;;;;;;;23.88;43.36;100236.85;1706231;83;20969;-65
2022/06/03 11:13:31;;;;;;;3.10;1.32;;;;;;;23.91;42.74;100243.09;1723208;83;21607;-66
2022/06/03 11:16:07;;;;;;;1.57;1.20;;;;;;;23.78;43.85;100239.20;1723149;83;21016;-69
2022/06/03 11:18:34;;;;;;;1.47;1.10;;;;;;;23.86;44.52;100237.25;1717940;82;21201;-69
2022/06/03 11:21:26;;;;;;;1.60;1.00;;;;;;;24.02;43.54;100235.49;1722239;83;21105;-69
2022/06/03 11:23:56;;;;;;;2.50;1.35;;;;;;;24.01;42.63;100240.93;1715083;83;21019;-68
2022/06/03 11:26:31;;;;;;;4.72;1.02;;;;;;;24.00;43.93;100238.52;1721900;82;21039;-71
2022/06/03 11:29:21;;;;;;;1.55;0.80;;;;;;;24.14;44.87;100240.58;1713868;83;21016;-69
2022/06/03 11:31:49;;;;;;;1.47;0.93;;;;;;;24.32;43.75;100246.29;1694992;84;21182;-72
2022/06/03 11:34:27;;;;;;;2.05;0.98;;;;;;;24.43;43.04;100240.67;1711935;82;21559;-67
2022/06/03 11:37:03;;;;;;;1.65;1.00;;;;;;;24.53;43.61;100234.27;1723175;82;21022;-70
2022/06/03 11:39:40;;;;;;;1.90;0.93;;;;;;;24.58;43.12;100233.08;1731712;82;21035;-70
2022/06/03 11:42:36;;;;;;;1.67;1.00;;;;;;;24.64;43.11;100228.66;1718705;82;21481;-71
2022/06/03 11:45:21;;;;;;;4.42;1.07;;;;;;;24.66;43.18;100226.84;1731949;82;21159;-68
2022/06/03 11:47:56;;;;;;;4.80;1.00;;;;;;;24.76;43.70;100224.64;1687364;82;21042;-69
2022/06/03 11:50:26;;;;;;;3.02;1.00;;;;;;;24.88;42.97;100224.03;1726936;82;21070;-70
2022/06/03 11:52:55;;;;;;;0.88;0.88;;;;;;;24.90;42.38;100230.08;1738530;81;20993;-68
2022/06/03 11:55:25;;;;;;;1.25;0.90;;;;;;;24.90;42.93;100225.27;1716975;82;22300;-68
2022/06/03 11:58:14;;;;;;;2.08;1.00;;;;;;;24.94;41.57;100219.66;1741309;81;21129;-68
2022/06/03 12:00:49;;;;;;;1.40;1.30;;;;;;;24.91;40.49;100219.03;1737854;81;21019;-70
2022/06/03 12:03:32;;;;;;;2.25;1.00;;;;;;;24.72;40.25;100216.78;1731425;81;21488;-69
2022/06/03 12:06:19;;;;;;;1.80;1.12;;;;;;;24.41;41.48;100211.52;1732023;81;21027;-67
2022/06/03 12:08:52;;;;;;;1.12;1.00;;;;;;;24.33;41.09;100206.29;1738126;81;21603;-67
2022/06/03 12:14:36;;;;;;;6.10;1.02;;;;;;;24.28;41.24;100206.87;1738601;81;21063;-69
2022/06/03 12:17:15;;;;;;;3.57;1.23;;;;;;;24.10;41.27;100206.80;1740194;81;21090;-70
2022/06/03 12:19:49;;;;;;;3.35;0.98;;;;;;;23.98;41.65;100211.37;1738991;81;21044;-67
2022/06/03 12:22:34;;;;;;;5.37;1.10;;;;;;;23.96;42.75;100200.52;1730572;81;21557;-70
2022/06/03 12:25:05;;;;;;;6.80;1.15;;;;;;;23.99;41.64;100201.72;1736943;81;21975;-68
2022/06/03 12:27:38;;;;;;;2.83;0.82;;;;;;;23.87;43.10;100202.28;1739225;81;21417;-71
2022/06/03 12:30:18;;;;;;;4.15;1.15;;;;;;;23.95;43.22;100205.32;1739545;81;21026;-68
2022/06/03 12:33:06;;;;;;;4.37;1.05;;;;;;;24.13;42.95;100198.96;1716355;82;21007;-71
2022/06/03 12:35:56;;;;;;;3.05;0.78;;;;;;;24.38;43.38;100198.23;1711441;83;21484;-70
2022/06/03 12:38:43;;;;;;;2.20;1.27;;;;;;;24.62;42.93;100188.00;1711149;83;22135;-71
2022/06/03 12:41:09;;;;;;;2.35;1.05;;;;;;;24.83;41.28;100185.00;1711042;83;21073;-71
2022/06/03 12:43:51;;;;;;;1.37;0.80;;;;;;;24.86;41.88;100189.82;1710951;83;21022;-68
2022/06/03 12:46:42;;;;;;;4.92;0.95;;;;;;;24.80;42.78;100187.41;1743071;81;21039;-68
2022/06/03 12:49:38;;;;;;;1.42;1.02;;;;;;;24.82;42.17;100195.48;1747483;81;20988;-69
2022/06/03 12:52:12;;;;;;;0.80;0.80;;;;;;;24.75;40.90;100192.06;1745306;81;21551;-69
2022/06/03 12:55:02;;;;;;;2.85;1.05;;;;;;;24.49;41.50;100194.64;1740119;81;21017;-69
2022/06/03 12:57:58;;;;;;;2.75;1.00;;;;;;;24.47;41.44;100192.81;1748505;81;21527;-65
2022/06/03 13:00:33;;;;;;;2.62;0.93;;;;;;;24.48;41.96;100188.19;1730195;82;21575;-68
2022/06/03 13:03:21;;;;;;;1.60;0.88;;;;;;;24.60;41.97;100190.44;1745154;81;21007;-68
2022/06/03 13:05:55;;;;;;;3.60;1.30;;;;;;;24.59;41.95;100191.62;1724869;82;21783;-71
2022/06/03 13:08:33;;;;;;;1.27;0.93;;;;;;;24.73;41.74;100189.42;1742083;81;21100;-67
2022/06/03 13:11:23;;;;;;;1.72;1.05;;;;;;;24.80;40.48;100183.17;1740741;81;20986;-67
2022/06/03 13:13:59;;;;;;;6.00;1.42;;;;;;;24.82;41.63;100181.98;1717036;82;21019;-65
2022/06/03 13:16:36;;;;;;;1.87;0.90;;;;;;;24.89;41.29;100182.00;1708048;83;21574;-66
2022/06/03 13:19:18;;;;;;;2.67;1.00;;;;;;;24.82;41.51;100181.39;1708996;83;21476;-70
2022/06/03 13:22:10;;;;;;;1.17;1.05;;;;;;;24.82;41.11;100183.40;1709418;83;21089;-68
2022/06/03 13:24:41;;;;;;;3.42;0.88;;;;;;;24.80;40.88;100180.98;1707484;83;21065;-71